Time;durP1;ratioP1;P1;durP2;ratioP2;P2;SDS_P1;SDS_P2;PMS_P1;PMS_P2;Temp;Humidity;BMP_temperature;BMP_pressure;BME280_temperature;BME280_humidity;BME280_pressure;Samples;Min_cycle;Max_cycle;Signal;HPM_P1;HPM_P2
2022/04/11 00:04:50;;;;;;;1.50;1.00;;;;;;;19.57;40.33;97164.66;10225616;28;20824;-57
2022/04/11 00:10:10;;;;;;;1.10;1.00;;;;;;;19.56;40.25;97163.88;10212001;29;20443;-58
2022/04/11 00:15:30;;;;;;;0.90;0.80;;;;;;;19.55;40.28;97158.78;10212692;29;20059;-57
2022/04/11 00:20:50;;;;;;;1.38;1.00;;;;;;;19.54;40.33;97154.47;10192543;28;20118;-58
2022/04/11 00:26:10;;;;;;;1.20;1.00;;;;;;;19.53;40.32;97164.47;10217023;29;20052;-58
2022/04/11 00:31:30;;;;;;;0.95;0.70;;;;;;;19.51;40.29;97158.59;10224688;28;20074;-58
2022/04/11 00:36:49;;;;;;;0.88;0.80;;;;;;;19.49;40.21;97152.72;10197461;29;20071;-57
2022/04/11 00:42:11;;;;;;;1.63;0.90;;;;;;;19.49;40.15;97155.41;10211784;29;20580;-58
2022/04/11 00:47:30;;;;;;;0.90;0.82;;;;;;;19.47;40.17;97165.75;10233789;29;20487;-58
2022/04/11 00:52:53;;;;;;;0.65;0.65;;;;;;;19.46;40.24;97157.94;10211477;29;20431;-57
2022/04/11 00:58:13;;;;;;;0.88;0.70;;;;;;;19.45;40.20;97169.88;10197243;29;20062;-58
2022/04/11 01:03:33;;;;;;;0.90;0.80;;;;;;;19.43;40.23;97153.97;10211098;29;20058;-58
2022/04/11 01:08:52;;;;;;;0.70;0.70;;;;;;;19.41;40.33;97161.59;10210455;29;20554;-58
2022/04/11 01:14:12;;;;;;;0.80;0.70;;;;;;;19.41;40.17;97158.91;10211051;29;20060;-58
2022/04/11 01:19:31;;;;;;;1.02;0.70;;;;;;;19.38;40.24;97162.22;10233810;29;20114;-58
2022/04/11 01:24:51;;;;;;;0.77;0.77;;;;;;;19.37;40.22;97160.63;10250241;29;20055;-58
2022/04/11 01:30:14;;;;;;;0.93;0.70;;;;;;;19.37;40.08;97174.16;10248227;28;20043;-58
2022/04/11 01:35:39;;;;;;;0.90;0.80;;;;;;;19.35;40.05;97168.25;10205595;29;20059;-58
2022/04/11 01:41:00;;;;;;;1.00;0.70;;;;;;;19.33;40.27;97165.88;10177966;29;20056;-58
2022/04/11 01:46:19;;;;;;;0.68;0.68;;;;;;;19.32;40.20;97172.38;10240547;28;20067;-58
2022/04/11 01:51:41;;;;;;;0.93;0.80;;;;;;;19.30;40.12;97169.19;10178183;29;20075;-57
2022/04/11 01:57:00;;;;;;;1.13;0.82;;;;;;;19.30;40.18;97182.69;10178798;29;20056;-58
2022/04/11 02:02:20;;;;;;;0.85;0.75;;;;;;;19.28;40.23;97184.91;10205154;29;20100;-58
2022/04/11 02:07:40;;;;;;;1.15;0.88;;;;;;;19.29;40.24;97183.03;10232120;29;20491;-56
2022/04/11 02:13:01;;;;;;;0.95;0.77;;;;;;;19.26;40.12;97178.25;10217225;29;20553;-58
2022/04/11 02:18:20;;;;;;;0.75;0.68;;;;;;;19.26;40.03;97183.63;10196869;29;20608;-58
2022/04/11 02:23:40;;;;;;;0.65;0.60;;;;;;;19.24;40.02;97185.84;10256209;29;20048;-58
2022/04/11 02:29:00;;;;;;;1.50;0.80;;;;;;;19.22;40.04;97180.75;10255293;29;20063;-58
2022/04/11 02:34:20;;;;;;;1.00;0.77;;;;;;;19.21;40.01;97176.47;10222134;29;20063;-58
2022/04/11 02:39:39;;;;;;;0.70;0.70;;;;;;;19.21;40.02;97181.06;10216123;29;20102;-58
2022/04/11 02:45:01;;;;;;;0.77;0.70;;;;;;;19.19;39.99;97188.69;10203882;29;20063;-58
2022/04/11 02:50:21;;;;;;;0.80;0.70;;;;;;;19.17;40.08;97187.13;10200582;29;20047;-58
2022/04/11 02:55:52;;;;;;;1.00;0.75;;;;;;;19.16;40.06;97190.91;10213965;28;20047;-57
2022/04/11 03:01:12;;;;;;;0.70;0.70;;;;;;;19.14;40.05;97193.13;10238257;29;20059;-57
2022/04/11 03:06:34;;;;;;;0.70;0.70;;;;;;;19.13;40.04;97188.84;10223937;29;20060;-58
2022/04/11 03:11:54;;;;;;;0.63;0.63;;;;;;;19.11;39.96;97190.25;10214359;29;20420;-58
2022/04/11 03:17:15;;;;;;;0.88;0.60;;;;;;;19.10;39.96;97186.75;10186246;29;20062;-58
2022/04/11 03:22:35;;;;;;;0.60;0.60;;;;;;;19.09;40.14;97187.88;10214086;29;20110;-58
2022/04/11 03:27:59;;;;;;;1.05;0.98;;;;;;;19.08;40.01;97188.19;10173676;29;20515;-58
2022/04/11 03:33:19;;;;;;;0.70;0.60;;;;;;;19.06;40.03;97188.50;10222548;28;20048;-58
2022/04/11 03:38:39;;;;;;;0.70;0.70;;;;;;;19.05;40.06;97189.63;10219796;28;20047;-58
2022/04/11 03:44:02;;;;;;;1.35;0.70;;;;;;;19.05;40.00;97194.19;10210282;29;20467;-58
2022/04/11 03:49:22;;;;;;;0.50;0.50;;;;;;;19.04;39.95;97189.91;10173364;28;20048;-57
2022/04/11 03:54:43;;;;;;;0.60;0.60;;;;;;;19.03;39.88;97191.78;10198547;29;20051;-57
2022/04/11 04:00:04;;;;;;;0.70;0.70;;;;;;;19.02;40.00;97195.63;10198677;29;20048;-56
2022/04/11 04:05:43;;;;;;;0.85;0.70;;;;;;;19.02;40.02;97194.84;10212604;29;20052;-55
2022/04/11 04:11:03;;;;;;;1.98;0.60;;;;;;;19.00;39.95;97197.03;10196884;29;20059;-58
2022/04/11 04:16:24;;;;;;;0.80;0.80;;;;;;;19.01;39.99;97201.31;10202679;29;20047;-58
2022/04/11 04:21:49;;;;;;;0.70;0.70;;;;;;;19.01;40.57;97198.63;10194868;29;20058;-59
2022/04/11 04:27:11;;;;;;;1.67;0.80;;;;;;;19.02;40.56;97211.03;10197405;29;20567;-59
2022/04/11 04:32:33;;;;;;;1.65;0.60;;;;;;;19.03;40.72;97201.81;10210387;29;20068;-58
2022/04/11 04:37:53;;;;;;;0.50;0.50;;;;;;;19.05;40.61;97202.28;10208024;28;20082;-58
2022/04/11 04:43:13;;;;;;;0.60;0.60;;;;;;;19.06;40.88;97204.69;10191922;29;20566;-56
2022/04/11 04:48:33;;;;;;;2.10;0.60;;;;;;;19.10;40.98;97202.16;10219324;29;20048;-58
2022/04/11 04:53:53;;;;;;;1.63;0.68;;;;;;;19.13;41.10;97206.94;10184701;29;20063;-59
2022/04/11 04:59:13;;;;;;;1.77;0.80;;;;;;;19.16;41.17;97209.03;10193308;29;20056;-58
2022/04/11 05:04:32;;;;;;;4.88;2.00;;;;;;;19.18;37.85;97206.81;10216084;28;20050;-59
2022/04/11 05:09:53;;;;;;;4.68;1.98;;;;;;;19.15;39.89;97210.94;10204744;29;20047;-58
2022/04/11 05:15:13;;;;;;;5.05;2.40;;;;;;;19.22;40.23;97220.50;10245032;29;20062;-59
2022/04/11 05:20:36;;;;;;;5.47;2.50;;;;;;;19.27;40.29;97218.44;10242154;28;20055;-58
2022/04/11 05:25:56;;;;;;;6.85;2.85;;;;;;;19.32;40.24;97212.09;10246326;28;20529;-59
2022/04/11 05:31:19;;;;;;;7.30;2.80;;;;;;;19.37;40.27;97214.66;10256079;28;20391;-58
2022/04/11 05:36:39;;;;;;;7.03;2.58;;;;;;;19.43;40.22;97220.75;10249908;28;20047;-58
2022/04/11 05:41:59;;;;;;;10.48;3.30;;;;;;;19.47;40.15;97219.00;10246630;29;20058;-58
2022/04/11 05:47:20;;;;;;;7.15;3.20;;;;;;;19.53;40.20;97226.63;10248214;29;20055;-59
2022/04/11 05:52:46;;;;;;;9.20;2.95;;;;;;;19.56;40.15;97228.72;10248157;28;20058;-59
2022/04/11 05:58:06;;;;;;;5.65;2.80;;;;;;;19.61;40.20;97226.97;10263290;28;20058;-59
2022/04/11 06:03:25;;;;;;;6.45;2.70;;;;;;;19.63;40.16;97222.06;10247858;28;20051;-59
2022/04/11 06:08:45;;;;;;;7.85;3.17;;;;;;;19.65;40.11;97217.13;10258477;28;20062;-59
2022/04/11 06:14:05;;;;;;;6.90;3.13;;;;;;;19.68;40.19;97219.19;10248338;29;20106;-59
2022/04/11 06:19:25;;;;;;;6.32;2.83;;;;;;;19.71;40.32;97219.41;10248513;29;20547;-59
2022/04/11 06:24:46;;;;;;;6.72;2.92;;;;;;;19.72;40.11;97209.41;10244849;28;20059;-58
2022/04/11 06:30:08;;;;;;;6.15;2.80;;;;;;;19.74;40.14;97218.00;10241942;29;20388;-59
2022/04/11 06:35:30;;;;;;;6.10;2.80;;;;;;;19.74;40.08;97221.47;10212204;29;20063;-59
2022/04/11 06:40:50;;;;;;;7.60;2.97;;;;;;;19.77;40.10;97221.97;10214642;29;20562;-59
2022/04/11 06:46:10;;;;;;;6.93;3.22;;;;;;;19.78;40.12;97223.53;10202026;29;20495;-59
2022/04/11 06:51:31;;;;;;;7.55;2.97;;;;;;;19.78;39.97;97224.34;10214129;29;20044;-58
2022/04/11 06:56:51;;;;;;;4.38;2.50;;;;;;;19.80;40.00;97224.03;10215194;29;20060;-58
2022/04/11 07:02:10;;;;;;;5.40;2.50;;;;;;;19.81;40.08;97220.22;10214198;29;20055;-58
2022/04/11 07:07:29;;;;;;;4.32;2.38;;;;;;;19.83;39.91;97231.50;10217221;29;20044;-59
2022/04/11 07:12:49;;;;;;;6.57;2.50;;;;;;;19.83;40.01;97234.22;10267365;28;20043;-58
2022/04/11 07:18:08;;;;;;;6.13;2.28;;;;;;;19.84;40.03;97241.22;10254616;29;20553;-58
2022/04/11 07:23:28;;;;;;;9.27;2.92;;;;;;;19.84;39.97;97244.72;10254385;29;20125;-59
2022/04/11 07:28:47;;;;;;;6.43;2.40;;;;;;;19.85;40.15;97240.09;10253534;29;20614;-59
2022/04/11 07:34:07;;;;;;;5.30;2.47;;;;;;;19.86;40.04;97245.19;10235579;29;20062;-59
2022/04/11 07:39:29;;;;;;;4.82;2.20;;;;;;;19.86;40.08;97247.91;10226842;29;20051;-58
2022/04/11 07:44:48;;;;;;;4.63;2.17;;;;;;;19.86;39.82;97244.41;10226707;29;20480;-59
2022/04/11 07:50:08;;;;;;;5.22;2.40;;;;;;;19.87;39.95;97248.69;10213700;29;20412;-59
2022/04/11 07:55:28;;;;;;;4.75;2.08;;;;;;;19.86;40.00;97247.91;10226117;29;20047;-59
2022/04/11 08:00:54;;;;;;;4.70;2.70;;;;;;;19.86;39.91;97247.13;10212311;29;20060;-59
2022/04/11 08:06:14;;;;;;;3.10;2.30;;;;;;;19.86;39.93;97250.63;10213271;29;20054;-59
2022/04/11 08:11:33;;;;;;;4.72;2.47;;;;;;;19.86;39.80;97245.19;10246469;29;20060;-59
2022/04/11 08:16:53;;;;;;;3.60;2.17;;;;;;;19.87;40.03;97246.00;10251769;29;20059;-58
2022/04/11 08:22:12;;;;;;;4.45;2.28;;;;;;;19.86;40.03;97245.19;10251525;29;20052;-59
2022/04/11 08:27:32;;;;;;;4.25;2.05;;;;;;;19.86;39.95;97247.91;10254099;28;20061;-59
2022/04/11 08:32:52;;;;;;;3.63;1.90;;;;;;;19.87;40.08;97252.19;10243946;29;20114;-58
2022/04/11 08:38:12;;;;;;;5.00;2.25;;;;;;;19.86;40.02;97247.91;10211381;29;20109;-59
2022/04/11 08:43:32;;;;;;;4.15;2.28;;;;;;;19.86;40.10;97252.53;10208496;29;20052;-58
2022/04/11 08:48:52;;;;;;;4.63;2.28;;;;;;;19.87;40.08;97257.59;10197917;29;20079;-58
2022/04/11 08:54:13;;;;;;;3.08;1.52;;;;;;;19.80;34.92;97253.75;10182386;29;20051;-58
2022/04/11 08:59:33;;;;;;;2.53;1.63;;;;;;;19.77;38.54;97251.69;10199605;29;20071;-59
2022/04/11 09:04:54;;;;;;;2.83;1.63;;;;;;;19.77;37.91;97249.78;10193107;29;20060;-58
2022/04/11 09:10:22;;;;;;;3.20;1.70;;;;;;;19.80;38.20;97248.34;10175576;29;20099;-59
2022/04/11 09:15:45;;;;;;;3.23;1.70;;;;;;;19.78;38.22;97243.28;10188998;29;20055;-59
2022/04/11 09:21:04;;;;;;;3.63;1.50;;;;;;;19.79;38.26;97239.44;10207740;29;20423;-59
2022/04/11 09:26:24;;;;;;;3.10;1.63;;;;;;;19.80;38.32;97232.13;10186798;29;20526;-58
2022/04/11 09:31:45;;;;;;;2.45;1.50;;;;;;;19.79;38.56;97238.66;10185329;29;20404;-58
2022/04/11 09:37:08;;;;;;;2.53;1.50;;;;;;;19.79;38.61;97233.25;10205816;29;20048;-58
2022/04/11 09:42:31;;;;;;;2.72;1.42;;;;;;;19.79;38.61;97227.84;10220236;29;20061;-59
2022/04/11 09:48:04;;;;;;;2.80;1.60;;;;;;;19.79;38.70;97227.84;10262814;28;20047;-58
2022/04/11 09:53:29;;;;;;;2.38;1.40;;;;;;;19.77;38.82;97211.94;10194531;29;20054;-58
2022/04/11 09:58:50;;;;;;;2.38;1.30;;;;;;;19.78;38.89;97210.84;10186919;29;20051;-59
2022/04/11 10:04:10;;;;;;;2.08;1.27;;;;;;;19.77;39.00;97201.13;10191739;29;20131;-58
2022/04/11 10:09:29;;;;;;;1.85;1.30;;;;;;;19.77;38.89;97198.41;10208985;29;20052;-58
2022/04/11 10:14:49;;;;;;;1.42;1.10;;;;;;;19.76;38.94;97186.03;10190907;29;20048;-59
2022/04/11 10:20:09;;;;;;;2.25;1.58;;;;;;;19.77;39.04;97186.81;10183869;29;20052;-58
2022/04/11 10:25:29;;;;;;;1.65;1.05;;;;;;;19.75;39.05;97187.13;10179511;29;20076;-58
2022/04/11 10:31:05;;;;;;;1.30;1.10;;;;;;;19.76;39.18;97180.63;10205481;29;20055;-58
2022/04/11 10:36:32;;;;;;;1.83;1.27;;;;;;;19.75;39.24;97176.31;10232662;29;20074;-58
2022/04/11 10:41:54;;;;;;;2.50;1.50;;;;;;;19.74;39.18;97164.72;10219639;29;20056;-59
2022/04/11 10:47:15;;;;;;;1.52;1.10;;;;;;;19.74;39.21;97162.00;10186724;29;20051;-58
2022/04/11 10:52:41;;;;;;;2.30;1.20;;;;;;;19.75;39.31;97165.50;10225129;28;20103;-59
2022/04/11 10:58:00;;;;;;;2.67;1.40;;;;;;;19.74;39.39;97158.53;10203909;29;20063;-59
2022/04/11 11:03:20;;;;;;;2.78;1.10;;;;;;;19.73;39.57;97149.59;10230838;29;20063;-58
2022/04/11 11:08:40;;;;;;;2.40;1.25;;;;;;;19.72;39.63;97147.22;10206405;28;20055;-58
2022/04/11 11:13:59;;;;;;;4.10;1.40;;;;;;;19.72;39.60;97136.41;10252857;29;20055;-58
2022/04/11 11:19:20;;;;;;;2.13;1.23;;;;;;;19.73;39.74;97129.88;10239903;29;20066;-59
2022/04/11 11:25:16;;;;;;;2.85;1.13;;;;;;;19.71;39.87;97122.09;10254194;29;20396;-59
2022/04/11 11:30:37;;;;;;;1.88;1.00;;;;;;;19.72;39.90;97120.19;10253628;28;20506;-59
2022/04/11 11:35:57;;;;;;;1.80;1.15;;;;;;;19.71;39.79;97116.69;10220918;29;20083;-57
2022/04/11 11:41:17;;;;;;;1.95;1.20;;;;;;;19.71;39.86;97115.88;10213166;29;20063;-59
2022/04/11 11:46:51;;;;;;;1.88;1.20;;;;;;;19.70;39.88;97117.78;10204899;29;20055;-59
2022/04/11 11:52:16;;;;;;;1.90;1.10;;;;;;;19.70;39.81;97106.19;10223789;29;20135;-59
2022/04/11 11:57:36;;;;;;;1.73;0.90;;;;;;;19.69;40.04;97104.56;10195374;29;20055;-59
2022/04/11 12:08:34;;;;;;;1.90;1.25;;;;;;;19.68;40.07;97095.69;10192208;29;20052;-59
2022/04/11 12:14:06;;;;;;;2.55;1.02;;;;;;;19.69;40.16;97099.16;10214176;29;20099;-58
2022/04/11 12:19:37;;;;;;;1.70;0.90;;;;;;;19.68;40.37;97089.44;10204682;29;20055;-59
2022/04/11 12:24:57;;;;;;;2.25;0.90;;;;;;;19.67;40.48;97079.78;10202699;29;20047;-58
2022/04/11 12:30:17;;;;;;;1.92;1.02;;;;;;;19.68;40.58;97079.47;10217642;28;20043;-59
2022/04/11 12:35:36;;;;;;;1.90;1.13;;;;;;;19.68;40.55;97074.06;10210746;29;20126;-59
2022/04/11 12:40:56;;;;;;;1.23;0.90;;;;;;;19.68;40.74;97073.25;10189021;29;20130;-59
2022/04/11 12:46:23;;;;;;;1.38;0.90;;;;;;;19.67;40.89;97058.16;10230517;28;20035;-59
2022/04/11 12:52:04;;;;;;;1.63;1.00;;;;;;;19.67;40.99;97058.94;10203259;29;20130;-59
2022/04/11 12:57:28;;;;;;;1.73;0.90;;;;;;;19.67;41.07;97052.75;10206073;28;20043;-59
2022/04/11 13:02:47;;;;;;;1.27;0.82;;;;;;;19.68;41.05;97048.91;10238155;29;20061;-59
2022/04/11 13:08:10;;;;;;;1.35;0.90;;;;;;;19.66;41.27;97041.16;10212956;29;20066;-59
2022/04/11 13:13:34;;;;;;;1.05;0.85;;;;;;;19.65;41.23;97027.94;10172017;29;20052;-59
2022/04/11 13:18:53;;;;;;;1.52;1.20;;;;;;;19.64;41.23;97024.47;10214198;29;20063;-58
2022/04/11 13:24:13;;;;;;;1.38;0.98;;;;;;;19.64;41.36;97016.34;10199303;29;20059;-58
2022/04/11 13:29:32;;;;;;;1.95;1.00;;;;;;;19.64;41.45;97010.13;10199977;29;20424;-58
2022/04/11 13:34:52;;;;;;;1.98;0.90;;;;;;;19.63;41.48;96993.13;10198438;29;20052;-59
2022/04/11 13:40:12;;;;;;;1.45;1.00;;;;;;;19.63;41.73;96993.13;10185217;29;20048;-59
2022/04/11 13:45:31;;;;;;;1.52;0.82;;;;;;;19.64;41.54;96989.31;10201401;29;20127;-59
2022/04/11 13:50:51;;;;;;;1.65;0.85;;;;;;;19.62;40.94;96988.03;10204499;29;20082;-59
2022/04/11 13:56:10;;;;;;;1.60;0.82;;;;;;;19.60;40.57;96971.34;10205372;29;20127;-59
2022/04/11 14:01:30;;;;;;;2.05;1.23;;;;;;;19.58;39.84;96962.75;10213010;29;20055;-59
2022/04/11 14:06:50;;;;;;;1.02;0.88;;;;;;;19.56;39.42;96969.28;10227824;29;20058;-60
2022/04/11 14:12:09;;;;;;;1.08;0.73;;;;;;;19.56;38.84;96965.78;10200566;29;20048;-59
2022/04/11 14:17:29;;;;;;;2.03;1.00;;;;;;;19.54;38.33;96963.41;10216850;29;20067;-59
2022/04/11 14:22:49;;;;;;;1.92;0.90;;;;;;;19.54;38.06;96968.81;10239628;28;20043;-61
2022/04/11 14:28:09;;;;;;;1.58;0.90;;;;;;;19.53;38.36;96966.44;10219097;29;20153;-58
2022/04/11 14:33:28;;;;;;;1.95;0.80;;;;;;;19.52;37.89;96954.03;10209516;28;20040;-59
2022/04/11 14:38:47;;;;;;;1.23;0.90;;;;;;;19.52;37.87;96965.66;10221248;29;20200;-59
2022/04/11 14:44:08;;;;;;;0.85;0.75;;;;;;;19.50;37.70;96957.06;10242209;28;20123;-59
2022/04/11 14:49:27;;;;;;;2.63;0.90;;;;;;;19.49;35.34;96943.88;10211637;29;20055;-59
2022/04/11 14:54:47;;;;;;;1.73;0.88;;;;;;;19.46;33.80;96918.25;10196230;29;20056;-59
2022/04/11 15:00:08;;;;;;;1.02;0.70;;;;;;;19.43;33.64;96923.53;10215254;29;20047;-59
2022/04/11 15:05:28;;;;;;;1.33;0.98;;;;;;;19.43;33.34;96923.53;10220011;29;20056;-59
2022/04/11 15:10:47;;;;;;;1.95;0.75;;;;;;;19.42;32.80;96921.94;10184697;29;20059;-59
2022/04/11 15:16:07;;;;;;;1.38;0.77;;;;;;;19.41;32.75;96914.97;10196023;29;20055;-59
2022/04/11 15:21:28;;;;;;;1.65;0.70;;;;;;;19.38;32.26;96916.38;10209865;29;20130;-59
2022/04/11 15:26:48;;;;;;;2.45;0.68;;;;;;;19.37;31.34;96914.81;10205182;29;20086;-59
2022/04/11 15:32:09;;;;;;;0.77;0.70;;;;;;;19.36;30.62;96918.59;10203103;28;20050;-59
2022/04/11 15:37:31;;;;;;;0.98;0.70;;;;;;;19.37;31.04;96909.41;10177169;29;20107;-60
2022/04/11 15:42:52;;;;;;;1.05;0.68;;;;;;;19.34;31.31;96905.41;10194001;29;20131;-59
2022/04/11 15:48:11;;;;;;;1.30;0.90;;;;;;;19.33;30.17;96903.84;10185457;29;20056;-59
2022/04/11 15:53:31;;;;;;;1.25;0.90;;;;;;;19.32;29.64;96902.25;10195482;28;20047;-59
2022/04/11 15:58:51;;;;;;;0.77;0.63;;;;;;;19.31;30.09;96899.88;10215580;28;20035;-59
2022/04/11 16:04:10;;;;;;;1.05;0.80;;;;;;;19.30;29.80;96890.19;10206566;28;20039;-60
2022/04/11 16:09:30;;;;;;;1.35;0.90;;;;;;;19.27;28.60;96894.31;10194698;29;20048;-58
2022/04/11 16:14:50;;;;;;;1.00;0.80;;;;;;;19.26;29.30;96887.31;10185630;29;20062;-59
2022/04/11 16:20:10;;;;;;;1.02;0.73;;;;;;;19.26;29.32;96891.94;10194974;29;20071;-54
2022/04/11 16:25:30;;;;;;;2.53;0.80;;;;;;;19.31;30.10;96894.47;10206868;29;20052;-57
2022/04/11 16:30:50;;;;;;;1.50;0.75;;;;;;;19.32;30.77;96885.25;10209994;29;20059;-59
2022/04/11 16:36:11;;;;;;;2.88;0.80;;;;;;;19.33;31.34;96884.94;10211298;28;20040;-60
2022/04/11 16:41:31;;;;;;;0.95;0.65;;;;;;;19.26;29.53;96883.81;10198828;28;20048;-60
2022/04/11 16:46:50;;;;;;;1.52;0.70;;;;;;;19.24;30.59;96884.13;10201633;29;20103;-59
2022/04/11 16:52:10;;;;;;;1.75;0.73;;;;;;;19.24;31.28;96892.25;10194253;29;20052;-59
2022/04/11 16:57:29;;;;;;;0.95;0.70;;;;;;;19.26;31.73;96878.44;10191475;29;20062;-59
2022/04/11 17:02:49;;;;;;;1.10;0.60;;;;;;;19.25;32.14;96887.63;10189040;28;20055;-59
2022/04/11 17:08:10;;;;;;;1.98;0.60;;;;;;;19.25;32.47;96884.94;10187013;29;20063;-60
2022/04/11 17:13:29;;;;;;;0.60;0.57;;;;;;;19.24;32.67;96883.34;10209701;29;20062;-58
2022/04/11 17:18:49;;;;;;;0.80;0.60;;;;;;;19.23;32.97;96884.44;10188828;29;20055;-60
2022/04/11 17:24:08;;;;;;;0.90;0.73;;;;;;;19.23;33.17;96887.16;10190295;29;20048;-60
2022/04/11 17:29:28;;;;;;;1.13;0.60;;;;;;;19.22;33.46;96890.97;10201304;29;20624;-59
2022/04/11 17:34:47;;;;;;;1.60;0.80;;;;;;;19.21;33.60;96889.38;10197471;29;20415;-59
2022/04/11 17:40:08;;;;;;;1.35;0.70;;;;;;;19.20;33.66;96890.50;10191849;29;20065;-60
2022/04/11 17:45:28;;;;;;;1.17;0.80;;;;;;;19.18;33.79;96890.81;10208695;29;20066;-58
2022/04/11 17:50:48;;;;;;;1.33;0.70;;;;;;;19.17;33.77;96886.56;10196818;29;20138;-59
2022/04/11 17:56:07;;;;;;;0.95;0.68;;;;;;;19.15;34.00;96892.25;10196726;29;20063;-59
2022/04/11 18:01:28;;;;;;;1.38;0.90;;;;;;;19.16;34.10;96898.44;10197557;29;20496;-60
2022/04/11 18:06:47;;;;;;;1.30;0.90;;;;;;;19.15;34.63;96903.06;10182981;29;20055;-59
2022/04/11 18:12:08;;;;;;;1.45;0.90;;;;;;;19.15;36.31;96897.66;10186260;29;20055;-59
2022/04/11 18:17:27;;;;;;;3.15;0.88;;;;;;;19.16;39.23;96903.84;10191321;29;20048;-59
2022/04/11 18:22:47;;;;;;;3.13;1.10;;;;;;;19.14;38.18;96904.16;10194298;29;20079;-58
2022/04/11 18:33:45;;;;;;;2.83;0.90;;;;;;;19.16;37.85;96903.84;10184809;29;20052;-58
2022/04/11 18:39:17;;;;;;;1.05;0.80;;;;;;;19.17;38.17;96908.16;10203393;29;20835;-63
2022/04/11 18:44:37;;;;;;;1.45;0.70;;;;;;;19.16;38.66;96912.75;10204575;29;20075;-62
2022/04/11 18:49:57;;;;;;;2.22;0.95;;;;;;;19.17;38.92;96910.84;10207852;28;20047;-62
2022/04/11 18:55:17;;;;;;;1.42;0.93;;;;;;;19.16;39.08;96915.44;10217073;28;20048;-59
2022/04/11 19:00:36;;;;;;;1.33;0.90;;;;;;;19.16;39.37;96923.53;10211689;29;20132;-55
2022/04/11 19:05:56;;;;;;;2.30;0.73;;;;;;;19.16;39.16;96931.66;10187336;29;20120;-57
2022/04/11 19:11:17;;;;;;;2.25;0.80;;;;;;;19.15;39.44;96930.06;10224330;28;20146;-59
2022/04/11 19:16:37;;;;;;;5.13;1.00;;;;;;;19.16;39.62;96934.34;10193253;29;20432;-63
2022/04/11 19:21:57;;;;;;;3.28;1.02;;;;;;;19.16;39.75;96936.25;10222969;29;20047;-57
2022/04/11 19:27:17;;;;;;;4.00;0.82;;;;;;;19.14;39.62;96936.56;10175847;29;20066;-59
2022/04/11 19:32:38;;;;;;;5.18;0.90;;;;;;;19.15;39.61;96946.28;10206310;28;20136;-61
2022/04/11 19:37:57;;;;;;;3.03;0.90;;;;;;;19.14;39.59;96943.88;10203753;28;20122;-61
2022/04/11 19:43:17;;;;;;;3.45;0.90;;;;;;;19.13;39.47;96943.09;10205722;29;20078;-60
2022/04/11 19:54:35;;;;;;;4.15;1.05;;;;;;;19.11;39.95;96939.91;10123322;29;20099;-59
2022/04/11 19:59:55;;;;;;;3.00;0.93;;;;;;;19.11;39.72;96942.63;10183194;29;20063;-59
2022/04/11 20:05:15;;;;;;;2.25;1.00;;;;;;;19.10;39.83;96935.63;10179879;29;20107;-60
2022/04/11 20:10:36;;;;;;;3.47;1.20;;;;;;;19.10;39.88;96935.63;10187646;29;20427;-58
2022/04/11 20:15:57;;;;;;;3.15;1.40;;;;;;;19.09;40.12;96930.53;10200208;29;20056;-58
2022/04/11 20:21:17;;;;;;;3.78;1.50;;;;;;;19.09;40.22;96935.94;10194962;29;20086;-59
2022/04/11 20:26:37;;;;;;;6.05;1.60;;;;;;;19.08;40.14;96937.06;10197129;29;20059;-59
2022/04/11 20:31:57;;;;;;;5.85;1.90;;;;;;;19.08;40.29;96939.75;10216083;28;20043;-59
2022/04/11 20:37:21;;;;;;;7.22;2.33;;;;;;;19.07;40.36;96932.75;10206137;29;20149;-59
2022/04/11 20:42:41;;;;;;;5.28;1.90;;;;;;;19.07;40.46;96932.75;10213567;28;20055;-58
2022/04/11 20:48:00;;;;;;;8.18;2.40;;;;;;;19.06;40.47;96931.97;10195485;29;20467;-58
2022/04/11 20:53:20;;;;;;;5.70;2.70;;;;;;;19.05;40.76;96925.00;10205202;29;20114;-58
2022/04/11 20:58:41;;;;;;;4.13;2.08;;;;;;;19.05;41.34;96935.78;10196438;29;20056;-57
2022/04/11 21:04:01;;;;;;;6.57;2.17;;;;;;;19.05;41.22;96930.41;10209061;28;20077;-58
2022/04/11 21:09:20;;;;;;;6.22;2.33;;;;;;;19.02;40.97;96933.72;10187614;29;20145;-59
2022/04/11 21:14:40;;;;;;;5.82;2.17;;;;;;;19.01;41.09;96932.13;10199613;29;20043;-58
2022/04/11 21:19:59;;;;;;;4.68;2.38;;;;;;;19.02;41.03;96935.63;10225460;28;20042;-59
2022/04/11 21:25:19;;;;;;;5.82;2.05;;;;;;;19.00;40.96;96944.03;10207946;29;20060;-56
2022/04/11 21:30:39;;;;;;;6.10;2.17;;;;;;;18.99;40.94;96939.72;10209399;29;20052;-58
2022/04/11 21:35:59;;;;;;;4.75;2.10;;;;;;;18.98;40.81;96943.56;10211579;29;20492;-58
2022/04/11 21:41:19;;;;;;;3.60;1.95;;;;;;;18.98;40.94;96938.16;10201335;29;20067;-59
2022/04/11 21:46:39;;;;;;;4.45;2.25;;;;;;;18.98;40.93;96938.16;10212596;29;20455;-58
2022/04/11 21:52:02;;;;;;;4.68;2.08;;;;;;;18.96;40.95;96943.09;10201732;29;20058;-58
2022/04/11 21:57:21;;;;;;;3.88;1.60;;;;;;;18.94;40.87;96934.50;10195211;29;20130;-58
2022/04/11 22:08:21;;;;;;;3.70;1.88;;;;;;;18.93;40.77;96927.50;10185457;29;20058;-58
2022/04/11 22:13:41;;;;;;;5.05;1.90;;;;;;;18.92;40.71;96936.72;10207005;29;20411;-58
2022/04/11 22:19:01;;;;;;;3.42;1.67;;;;;;;18.92;40.76;96936.72;10192315;29;20066;-58
2022/04/11 22:24:20;;;;;;;3.63;1.73;;;;;;;18.90;40.86;96931.66;10200348;29;20123;-58
2022/04/11 22:29:39;;;;;;;4.15;1.67;;;;;;;18.89;40.74;96923.84;10206457;29;20430;-59
2022/04/11 22:34:58;;;;;;;;;;;;;;;18.88;40.80;96919.59;10197574;29;20056;-59
2022/04/11 22:40:19;;;;;;;4.15;1.70;;;;;;;18.86;40.75;96911.78;10211005;28;19923;-58
2022/04/11 22:45:39;;;;;;;3.00;1.75;;;;;;;18.86;40.62;96917.19;10176493;29;20056;-59
2022/04/11 22:50:58;;;;;;;4.45;1.70;;;;;;;18.85;40.80;96914.81;10181594;29;20463;-58
2022/04/11 22:56:18;;;;;;;2.00;1.50;;;;;;;18.84;40.53;96921.34;10190977;29;20043;-58
2022/04/11 23:01:38;;;;;;;4.40;1.83;;;;;;;18.85;40.77;96931.00;10213014;29;20096;-59
2022/04/11 23:06:58;;;;;;;3.85;2.00;;;;;;;18.82;40.79;96928.91;10212399;28;20408;-58
2022/04/11 23:12:17;;;;;;;3.25;1.60;;;;;;;18.82;40.72;96934.31;10179043;29;20539;-58
2022/04/11 23:17:37;;;;;;;4.38;1.95;;;;;;;18.82;40.78;96928.91;10201500;29;20056;-59
2022/04/11 23:22:56;;;;;;;3.30;1.38;;;;;;;18.80;40.75;96929.25;10227359;28;20058;-58
2022/04/11 23:28:15;;;;;;;3.25;1.77;;;;;;;18.79;40.66;96938.41;10184991;29;20069;-58
2022/04/11 23:33:35;;;;;;;2.60;1.65;;;;;;;18.78;40.70;96936.84;10189426;29;20043;-57
2022/04/11 23:38:55;;;;;;;2.90;1.70;;;;;;;18.76;40.71;96934.47;10193243;29;20472;-58
2022/04/11 23:44:15;;;;;;;2.53;1.60;;;;;;;18.75;40.48;96932.84;10183725;29;20048;-58
2022/04/11 23:49:34;;;;;;;3.80;1.70;;;;;;;18.74;40.72;96931.28;10184943;29;20492;-59
2022/04/11 23:54:53;;;;;;;2.75;1.35;;;;;;;18.75;40.54;96937.47;10193789;29;20052;-59
